sensor_id;sensor_type;location;lat;lon;timestamp;temperature;humidity
5130;DHT22;2583;50.946;6.954;2023-04-06T00:00:39;6.30;1.00
5130;DHT22;2583;50.946;6.954;2023-04-06T00:03:05;6.30;1.00
5130;DHT22;2583;50.946;6.954;2023-04-06T00:05:33;6.30;1.00
5130;DHT22;2583;50.946;6.954;2023-04-06T00:08:00;6.20;1.00
5130;DHT22;2583;50.946;6.954;2023-04-06T00:10:27;6.20;1.00
5130;DHT22;2583;50.946;6.954;2023-04-06T00:12:54;6.30;1.00
5130;DHT22;2583;50.946;6.954;2023-04-06T00:15:21;6.30;1.00
5130;DHT22;2583;50.946;6.954;2023-04-06T00:17:48;6.30;1.00
5130;DHT22;2583;50.946;6.954;2023-04-06T00:20:15;6.20;1.00
5130;DHT22;2583;50.946;6.954;2023-04-06T00:22:43;6.00;1.00
5130;DHT22;2583;50.946;6.954;2023-04-06T00:25:10;5.90;1.00
5130;DHT22;2583;50.946;6.954;2023-04-06T00:27:38;5.90;1.00
5130;DHT22;2583;50.946;6.954;2023-04-06T00:30:05;5.90;1.00
5130;DHT22;2583;50.946;6.954;2023-04-06T00:32:32;6.00;1.00
5130;DHT22;2583;50.946;6.954;2023-04-06T00:34:59;6.00;1.00
5130;DHT22;2583;50.946;6.954;2023-04-06T00:37:26;6.00;1.00
5130;DHT22;2583;50.946;6.954;2023-04-06T00:39:53;6.00;1.00
5130;DHT22;2583;50.946;6.954;2023-04-06T00:42:21;6.00;1.00
5130;DHT22;2583;50.946;6.954;2023-04-06T00:44:56;6.00;1.00
5130;DHT22;2583;50.946;6.954;2023-04-06T00:47:24;6.00;1.00
5130;DHT22;2583;50.946;6.954;2023-04-06T00:49:54;6.00;1.00
5130;DHT22;2583;50.946;6.954;2023-04-06T00:52:21;6.00;1.00
5130;DHT22;2583;50.946;6.954;2023-04-06T00:54:49;6.00;1.00
5130;DHT22;2583;50.946;6.954;2023-04-06T00:57:16;6.00;1.00
5130;DHT22;2583;50.946;6.954;2023-04-06T00:59:44;6.00;1.00
5130;DHT22;2583;50.946;6.954;2023-04-06T01:02:11;6.00;1.00
5130;DHT22;2583;50.946;6.954;2023-04-06T01:04:39;6.00;1.00
5130;DHT22;2583;50.946;6.954;2023-04-06T01:07:06;5.90;1.00
5130;DHT22;2583;50.946;6.954;2023-04-06T01:09:33;5.80;1.00
5130;DHT22;2583;50.946;6.954;2023-04-06T01:11:59;5.80;1.00
5130;DHT22;2583;50.946;6.954;2023-04-06T01:14:27;5.70;1.00
5130;DHT22;2583;50.946;6.954;2023-04-06T01:16:54;5.70;1.00
5130;DHT22;2583;50.946;6.954;2023-04-06T01:19:22;5.70;1.00
5130;DHT22;2583;50.946;6.954;2023-04-06T01:21:48;5.60;1.00
5130;DHT22;2583;50.946;6.954;2023-04-06T01:24:17;5.60;1.00
5130;DHT22;2583;50.946;6.954;2023-04-06T01:26:44;5.60;1.00
5130;DHT22;2583;50.946;6.954;2023-04-06T01:29:11;5.60;1.00
5130;DHT22;2583;50.946;6.954;2023-04-06T01:31:39;5.50;1.00
5130;DHT22;2583;50.946;6.954;2023-04-06T01:34:06;5.50;1.00
5130;DHT22;2583;50.946;6.954;2023-04-06T01:36:33;5.50;1.00
5130;DHT22;2583;50.946;6.954;2023-04-06T01:39:00;5.40;1.00
5130;DHT22;2583;50.946;6.954;2023-04-06T01:41:27;5.40;1.00
5130;DHT22;2583;50.946;6.954;2023-04-06T01:43:54;5.30;1.00
5130;DHT22;2583;50.946;6.954;2023-04-06T01:46:21;5.30;1.00
5130;DHT22;2583;50.946;6.954;2023-04-06T01:48:48;5.20;1.00
5130;DHT22;2583;50.946;6.954;2023-04-06T01:51:15;5.20;1.00
5130;DHT22;2583;50.946;6.954;2023-04-06T01:53:42;5.10;1.00
5130;DHT22;2583;50.946;6.954;2023-04-06T01:56:09;5.10;1.00
5130;DHT22;2583;50.946;6.954;2023-04-06T01:58:36;5.00;1.00
5130;DHT22;2583;50.946;6.954;2023-04-06T02:01:03;5.00;1.00
5130;DHT22;2583;50.946;6.954;2023-04-06T02:03:30;4.90;1.00
5130;DHT22;2583;50.946;6.954;2023-04-06T02:05:57;4.90;1.00
5130;DHT22;2583;50.946;6.954;2023-04-06T02:08:24;4.90;1.00
5130;DHT22;2583;50.946;6.954;2023-04-06T02:10:51;4.90;1.00
5130;DHT22;2583;50.946;6.954;2023-04-06T02:13:18;4.90;1.00
5130;DHT22;2583;50.946;6.954;2023-04-06T02:15:45;4.90;1.00
5130;DHT22;2583;50.946;6.954;2023-04-06T02:18:12;4.90;1.00
5130;DHT22;2583;50.946;6.954;2023-04-06T02:20:39;4.90;1.00
5130;DHT22;2583;50.946;6.954;2023-04-06T02:23:05;4.90;1.00
5130;DHT22;2583;50.946;6.954;2023-04-06T02:25:32;4.90;1.00
5130;DHT22;2583;50.946;6.954;2023-04-06T02:27:59;4.90;1.00
5130;DHT22;2583;50.946;6.954;2023-04-06T02:30:26;4.90;1.00
5130;DHT22;2583;50.946;6.954;2023-04-06T02:32:53;4.90;1.00
5130;DHT22;2583;50.946;6.954;2023-04-06T02:35:20;4.90;1.00
5130;DHT22;2583;50.946;6.954;2023-04-06T02:37:47;4.90;1.00
5130;DHT22;2583;50.946;6.954;2023-04-06T02:40:14;4.80;1.00
5130;DHT22;2583;50.946;6.954;2023-04-06T02:42:41;4.80;1.00
5130;DHT22;2583;50.946;6.954;2023-04-06T02:45:08;4.80;1.00
5130;DHT22;2583;50.946;6.954;2023-04-06T02:47:35;4.70;1.00
5130;DHT22;2583;50.946;6.954;2023-04-06T02:50:02;4.70;1.00
5130;DHT22;2583;50.946;6.954;2023-04-06T02:52:29;4.70;1.00
5130;DHT22;2583;50.946;6.954;2023-04-06T02:54:56;4.70;1.00
5130;DHT22;2583;50.946;6.954;2023-04-06T02:57:23;4.70;1.00
5130;DHT22;2583;50.946;6.954;2023-04-06T02:59:49;4.70;1.00
5130;DHT22;2583;50.946;6.954;2023-04-06T03:02:16;4.60;1.00
5130;DHT22;2583;50.946;6.954;2023-04-06T03:04:44;4.60;1.00
5130;DHT22;2583;50.946;6.954;2023-04-06T03:07:11;4.60;1.00
5130;DHT22;2583;50.946;6.954;2023-04-06T03:09:38;4.60;1.00
5130;DHT22;2583;50.946;6.954;2023-04-06T03:12:05;4.60;1.00
5130;DHT22;2583;50.946;6.954;2023-04-06T03:14:35;4.60;1.00
5130;DHT22;2583;50.946;6.954;2023-04-06T03:17:02;4.60;1.00
5130;DHT22;2583;50.946;6.954;2023-04-06T03:19:29;4.60;1.00
5130;DHT22;2583;50.946;6.954;2023-04-06T03:21:56;4.60;1.00
5130;DHT22;2583;50.946;6.954;2023-04-06T03:24:22;4.50;1.00
5130;DHT22;2583;50.946;6.954;2023-04-06T03:26:49;4.60;1.00
5130;DHT22;2583;50.946;6.954;2023-04-06T03:29:16;4.50;1.00
5130;DHT22;2583;50.946;6.954;2023-04-06T03:31:43;4.60;1.00
5130;DHT22;2583;50.946;6.954;2023-04-06T03:34:10;4.60;1.00
5130;DHT22;2583;50.946;6.954;2023-04-06T03:36:37;4.50;1.00
5130;DHT22;2583;50.946;6.954;2023-04-06T03:39:04;4.50;1.00
5130;DHT22;2583;50.946;6.954;2023-04-06T03:41:31;4.50;1.00
5130;DHT22;2583;50.946;6.954;2023-04-06T03:43:58;4.50;1.00
5130;DHT22;2583;50.946;6.954;2023-04-06T03:46:24;4.50;1.00
5130;DHT22;2583;50.946;6.954;2023-04-06T03:48:51;4.50;1.00
5130;DHT22;2583;50.946;6.954;2023-04-06T03:51:18;4.40;1.00
5130;DHT22;2583;50.946;6.954;2023-04-06T03:53:45;4.50;1.00
5130;DHT22;2583;50.946;6.954;2023-04-06T03:56:12;4.50;1.00
5130;DHT22;2583;50.946;6.954;2023-04-06T03:58:39;4.40;1.00
5130;DHT22;2583;50.946;6.954;2023-04-06T04:01:05;4.40;1.00
5130;DHT22;2583;50.946;6.954;2023-04-06T04:03:32;4.40;1.00
5130;DHT22;2583;50.946;6.954;2023-04-06T04:05:59;4.40;1.00
5130;DHT22;2583;50.946;6.954;2023-04-06T04:08:26;4.30;1.00
5130;DHT22;2583;50.946;6.954;2023-04-06T04:10:53;4.30;1.00
5130;DHT22;2583;50.946;6.954;2023-04-06T04:13:20;4.30;1.00
5130;DHT22;2583;50.946;6.954;2023-04-06T04:15:47;4.20;1.00
5130;DHT22;2583;50.946;6.954;2023-04-06T04:18:14;4.20;1.00
5130;DHT22;2583;50.946;6.954;2023-04-06T04:20:41;4.20;1.00
5130;DHT22;2583;50.946;6.954;2023-04-06T04:23:08;4.10;1.00
5130;DHT22;2583;50.946;6.954;2023-04-06T04:25:35;4.10;1.00
5130;DHT22;2583;50.946;6.954;2023-04-06T04:28:02;4.10;1.00
5130;DHT22;2583;50.946;6.954;2023-04-06T04:30:29;4.00;1.00
5130;DHT22;2583;50.946;6.954;2023-04-06T04:32:56;4.00;1.00
5130;DHT22;2583;50.946;6.954;2023-04-06T04:35:23;4.00;1.00
5130;DHT22;2583;50.946;6.954;2023-04-06T04:37:50;4.00;1.00
5130;DHT22;2583;50.946;6.954;2023-04-06T04:40:16;3.90;1.00
5130;DHT22;2583;50.946;6.954;2023-04-06T04:42:43;3.90;1.00
5130;DHT22;2583;50.946;6.954;2023-04-06T04:45:10;3.90;1.00
5130;DHT22;2583;50.946;6.954;2023-04-06T04:47:38;3.80;1.00
5130;DHT22;2583;50.946;6.954;2023-04-06T04:50:05;3.80;1.00
5130;DHT22;2583;50.946;6.954;2023-04-06T04:52:32;3.80;1.00
5130;DHT22;2583;50.946;6.954;2023-04-06T04:54:59;3.70;1.00
5130;DHT22;2583;50.946;6.954;2023-04-06T04:57:26;3.80;1.00
5130;DHT22;2583;50.946;6.954;2023-04-06T04:59:52;3.80;1.00
5130;DHT22;2583;50.946;6.954;2023-04-06T05:02:22;3.80;1.00
5130;DHT22;2583;50.946;6.954;2023-04-06T05:04:49;3.80;1.00
5130;DHT22;2583;50.946;6.954;2023-04-06T05:07:16;3.80;1.00
5130;DHT22;2583;50.946;6.954;2023-04-06T05:09:45;3.80;1.00
5130;DHT22;2583;50.946;6.954;2023-04-06T05:12:12;3.80;1.00
5130;DHT22;2583;50.946;6.954;2023-04-06T05:14:39;3.80;1.00
5130;DHT22;2583;50.946;6.954;2023-04-06T05:17:06;3.80;1.00
5130;DHT22;2583;50.946;6.954;2023-04-06T05:19:33;3.80;1.00
5130;DHT22;2583;50.946;6.954;2023-04-06T05:22:00;3.80;1.00
5130;DHT22;2583;50.946;6.954;2023-04-06T05:24:26;3.90;1.00
5130;DHT22;2583;50.946;6.954;2023-04-06T05:26:54;3.90;1.00
5130;DHT22;2583;50.946;6.954;2023-04-06T05:29:21;4.00;1.00
5130;DHT22;2583;50.946;6.954;2023-04-06T05:31:47;3.90;1.00
5130;DHT22;2583;50.946;6.954;2023-04-06T05:34:15;3.90;1.00
5130;DHT22;2583;50.946;6.954;2023-04-06T05:36:42;3.90;1.00
5130;DHT22;2583;50.946;6.954;2023-04-06T05:39:09;3.90;1.00
5130;DHT22;2583;50.946;6.954;2023-04-06T05:41:36;3.90;1.00
5130;DHT22;2583;50.946;6.954;2023-04-06T05:44:03;3.90;1.00
5130;DHT22;2583;50.946;6.954;2023-04-06T05:46:31;3.90;1.00
5130;DHT22;2583;50.946;6.954;2023-04-06T05:48:58;4.00;1.00
5130;DHT22;2583;50.946;6.954;2023-04-06T05:51:25;4.00;1.00
5130;DHT22;2583;50.946;6.954;2023-04-06T05:53:53;4.10;1.00
5130;DHT22;2583;50.946;6.954;2023-04-06T05:56:20;4.10;1.00
5130;DHT22;2583;50.946;6.954;2023-04-06T05:58:47;4.20;1.00
5130;DHT22;2583;50.946;6.954;2023-04-06T06:01:13;4.30;1.00
5130;DHT22;2583;50.946;6.954;2023-04-06T06:03:41;4.30;1.00
5130;DHT22;2583;50.946;6.954;2023-04-06T06:06:07;4.30;1.00
5130;DHT22;2583;50.946;6.954;2023-04-06T06:08:34;4.40;1.00
5130;DHT22;2583;50.946;6.954;2023-04-06T06:11:02;4.40;1.00
5130;DHT22;2583;50.946;6.954;2023-04-06T06:13:29;4.40;1.00
5130;DHT22;2583;50.946;6.954;2023-04-06T06:15:56;4.50;1.00
5130;DHT22;2583;50.946;6.954;2023-04-06T06:18:23;4.50;1.00
5130;DHT22;2583;50.946;6.954;2023-04-06T06:20:49;4.50;1.00
5130;DHT22;2583;50.946;6.954;2023-04-06T06:23:16;4.50;1.00
5130;DHT22;2583;50.946;6.954;2023-04-06T06:25:43;4.60;1.00
5130;DHT22;2583;50.946;6.954;2023-04-06T06:28:10;4.60;1.00
5130;DHT22;2583;50.946;6.954;2023-04-06T06:30:37;4.60;1.00
5130;DHT22;2583;50.946;6.954;2023-04-06T06:33:04;4.60;1.00
5130;DHT22;2583;50.946;6.954;2023-04-06T06:35:31;4.60;1.00
5130;DHT22;2583;50.946;6.954;2023-04-06T06:37:58;4.70;1.00
5130;DHT22;2583;50.946;6.954;2023-04-06T06:40:25;4.80;1.00
5130;DHT22;2583;50.946;6.954;2023-04-06T06:42:52;4.80;1.00
5130;DHT22;2583;50.946;6.954;2023-04-06T06:45:19;4.90;1.00
5130;DHT22;2583;50.946;6.954;2023-04-06T06:47:46;5.00;1.00
5130;DHT22;2583;50.946;6.954;2023-04-06T06:50:14;5.00;1.00
5130;DHT22;2583;50.946;6.954;2023-04-06T06:52:41;5.00;1.00
5130;DHT22;2583;50.946;6.954;2023-04-06T06:55:09;5.10;1.00
5130;DHT22;2583;50.946;6.954;2023-04-06T06:57:37;5.20;1.00
5130;DHT22;2583;50.946;6.954;2023-04-06T07:00:06;5.20;1.00
5130;DHT22;2583;50.946;6.954;2023-04-06T07:02:34;5.30;1.00
5130;DHT22;2583;50.946;6.954;2023-04-06T07:05:03;5.40;1.00
5130;DHT22;2583;50.946;6.954;2023-04-06T07:07:42;5.50;1.00
5130;DHT22;2583;50.946;6.954;2023-04-06T07:10:10;5.50;1.00
5130;DHT22;2583;50.946;6.954;2023-04-06T07:12:37;5.70;1.00
5130;DHT22;2583;50.946;6.954;2023-04-06T07:15:04;5.80;1.00
5130;DHT22;2583;50.946;6.954;2023-04-06T07:17:31;6.00;1.00
5130;DHT22;2583;50.946;6.954;2023-04-06T07:19:58;6.20;1.00
5130;DHT22;2583;50.946;6.954;2023-04-06T07:22:25;6.40;1.00
5130;DHT22;2583;50.946;6.954;2023-04-06T07:24:52;6.60;1.00
5130;DHT22;2583;50.946;6.954;2023-04-06T07:27:19;6.70;1.00
5130;DHT22;2583;50.946;6.954;2023-04-06T07:29:45;6.80;1.00
5130;DHT22;2583;50.946;6.954;2023-04-06T07:32:12;6.90;1.00
5130;DHT22;2583;50.946;6.954;2023-04-06T07:34:39;7.00;1.00
5130;DHT22;2583;50.946;6.954;2023-04-06T07:37:06;7.20;1.00
5130;DHT22;2583;50.946;6.954;2023-04-06T07:39:33;7.40;1.00
5130;DHT22;2583;50.946;6.954;2023-04-06T07:42:01;7.60;1.00
5130;DHT22;2583;50.946;6.954;2023-04-06T07:44:28;7.60;1.00
5130;DHT22;2583;50.946;6.954;2023-04-06T07:46:55;7.70;1.00
5130;DHT22;2583;50.946;6.954;2023-04-06T07:49:23;7.70;1.00
5130;DHT22;2583;50.946;6.954;2023-04-06T07:51:49;7.80;1.00
5130;DHT22;2583;50.946;6.954;2023-04-06T07:54:16;7.90;1.00
5130;DHT22;2583;50.946;6.954;2023-04-06T07:56:43;8.00;1.00
5130;DHT22;2583;50.946;6.954;2023-04-06T07:59:10;8.00;1.00
5130;DHT22;2583;50.946;6.954;2023-04-06T08:01:38;8.10;1.00
5130;DHT22;2583;50.946;6.954;2023-04-06T08:04:04;8.20;1.00
5130;DHT22;2583;50.946;6.954;2023-04-06T08:06:32;8.30;1.00
5130;DHT22;2583;50.946;6.954;2023-04-06T08:08:59;8.40;1.00
5130;DHT22;2583;50.946;6.954;2023-04-06T08:11:26;8.50;1.00
5130;DHT22;2583;50.946;6.954;2023-04-06T08:13:54;8.50;1.00
5130;DHT22;2583;50.946;6.954;2023-04-06T08:16:24;8.60;1.00
5130;DHT22;2583;50.946;6.954;2023-04-06T08:18:50;8.70;1.00
5130;DHT22;2583;50.946;6.954;2023-04-06T08:21:18;8.90;1.00
5130;DHT22;2583;50.946;6.954;2023-04-06T08:23:44;9.10;1.00
5130;DHT22;2583;50.946;6.954;2023-04-06T08:26:12;9.20;1.00
5130;DHT22;2583;50.946;6.954;2023-04-06T08:28:51;9.20;1.00
5130;DHT22;2583;50.946;6.954;2023-04-06T08:31:18;9.40;1.00
5130;DHT22;2583;50.946;6.954;2023-04-06T08:33:45;9.50;1.00
5130;DHT22;2583;50.946;6.954;2023-04-06T08:36:13;9.60;1.00
5130;DHT22;2583;50.946;6.954;2023-04-06T08:38:41;9.80;1.00
5130;DHT22;2583;50.946;6.954;2023-04-06T08:41:10;9.80;1.00
5130;DHT22;2583;50.946;6.954;2023-04-06T08:43:47;10.00;1.00
5130;DHT22;2583;50.946;6.954;2023-04-06T08:46:14;10.00;1.00
5130;DHT22;2583;50.946;6.954;2023-04-06T08:48:43;10.10;1.00
5130;DHT22;2583;50.946;6.954;2023-04-06T08:51:10;10.30;1.00
5130;DHT22;2583;50.946;6.954;2023-04-06T08:53:38;10.40;1.00
5130;DHT22;2583;50.946;6.954;2023-04-06T08:56:05;10.50;1.00
5130;DHT22;2583;50.946;6.954;2023-04-06T08:58:38;10.60;1.00
5130;DHT22;2583;50.946;6.954;2023-04-06T09:01:11;10.70;1.00
5130;DHT22;2583;50.946;6.954;2023-04-06T09:03:40;10.90;1.00
5130;DHT22;2583;50.946;6.954;2023-04-06T09:06:08;11.10;1.00
5130;DHT22;2583;50.946;6.954;2023-04-06T09:08:38;11.30;1.00
5130;DHT22;2583;50.946;6.954;2023-04-06T09:11:05;11.50;1.00
5130;DHT22;2583;50.946;6.954;2023-04-06T09:13:45;11.70;1.00
5130;DHT22;2583;50.946;6.954;2023-04-06T09:16:12;11.80;1.00
5130;DHT22;2583;50.946;6.954;2023-04-06T09:18:39;12.00;1.00
5130;DHT22;2583;50.946;6.954;2023-04-06T09:21:08;12.10;1.00
5130;DHT22;2583;50.946;6.954;2023-04-06T09:23:35;12.20;1.00
5130;DHT22;2583;50.946;6.954;2023-04-06T09:26:10;12.10;1.00
5130;DHT22;2583;50.946;6.954;2023-04-06T09:28:55;12.20;1.00
5130;DHT22;2583;50.946;6.954;2023-04-06T09:31:28;12.50;1.00
5130;DHT22;2583;50.946;6.954;2023-04-06T09:33:56;12.60;1.00
5130;DHT22;2583;50.946;6.954;2023-04-06T09:36:34;12.80;1.00
5130;DHT22;2583;50.946;6.954;2023-04-06T09:39:03;12.90;1.00
5130;DHT22;2583;50.946;6.954;2023-04-06T09:41:35;12.90;1.00
5130;DHT22;2583;50.946;6.954;2023-04-06T09:44:12;12.90;1.00
5130;DHT22;2583;50.946;6.954;2023-04-06T09:46:40;12.90;1.00
5130;DHT22;2583;50.946;6.954;2023-04-06T09:49:30;13.00;1.00
5130;DHT22;2583;50.946;6.954;2023-04-06T09:52:00;13.00;1.00
5130;DHT22;2583;50.946;6.954;2023-04-06T09:54:31;13.00;1.00
5130;DHT22;2583;50.946;6.954;2023-04-06T09:57:15;13.10;1.00
5130;DHT22;2583;50.946;6.954;2023-04-06T09:59:55;13.20;1.00
5130;DHT22;2583;50.946;6.954;2023-04-06T10:05:09;13.30;1.00
5130;DHT22;2583;50.946;6.954;2023-04-06T10:07:40;13.40;1.00
5130;DHT22;2583;50.946;6.954;2023-04-06T10:10:25;13.50;1.00
5130;DHT22;2583;50.946;6.954;2023-04-06T10:12:52;13.50;1.00
5130;DHT22;2583;50.946;6.954;2023-04-06T10:15:20;13.80;1.00
5130;DHT22;2583;50.946;6.954;2023-04-06T10:17:48;14.00;1.00
5130;DHT22;2583;50.946;6.954;2023-04-06T10:21:09;14.10;1.00
5130;DHT22;2583;50.946;6.954;2023-04-06T10:23:26;14.10;1.00
5130;DHT22;2583;50.946;6.954;2023-04-06T10:25:57;14.40;1.00
5130;DHT22;2583;50.946;6.954;2023-04-06T10:28:25;14.70;1.00
5130;DHT22;2583;50.946;6.954;2023-04-06T10:30:58;14.80;1.00
5130;DHT22;2583;50.946;6.954;2023-04-06T10:33:25;14.80;1.00
5130;DHT22;2583;50.946;6.954;2023-04-06T10:35:52;14.70;1.00
5130;DHT22;2583;50.946;6.954;2023-04-06T10:38:19;14.60;1.00
5130;DHT22;2583;50.946;6.954;2023-04-06T10:40:48;14.60;1.00
5130;DHT22;2583;50.946;6.954;2023-04-06T10:43:20;14.60;1.00
5130;DHT22;2583;50.946;6.954;2023-04-06T10:46:00;14.70;1.00
5130;DHT22;2583;50.946;6.954;2023-04-06T10:48:41;14.70;1.00
5130;DHT22;2583;50.946;6.954;2023-04-06T10:51:12;14.70;1.00
5130;DHT22;2583;50.946;6.954;2023-04-06T10:53:47;14.70;1.00
5130;DHT22;2583;50.946;6.954;2023-04-06T10:56:16;14.70;1.00
5130;DHT22;2583;50.946;6.954;2023-04-06T10:58:54;14.60;1.00
5130;DHT22;2583;50.946;6.954;2023-04-06T11:01:24;14.70;1.00
5130;DHT22;2583;50.946;6.954;2023-04-06T11:03:55;14.80;1.00
5130;DHT22;2583;50.946;6.954;2023-04-06T11:06:27;14.70;1.00
5130;DHT22;2583;50.946;6.954;2023-04-06T11:08:55;14.70;1.00
5130;DHT22;2583;50.946;6.954;2023-04-06T11:11:24;14.80;1.00
5130;DHT22;2583;50.946;6.954;2023-04-06T11:13:59;14.70;1.00
5130;DHT22;2583;50.946;6.954;2023-04-06T11:16:29;14.70;1.00
5130;DHT22;2583;50.946;6.954;2023-04-06T11:19:04;14.70;1.00
5130;DHT22;2583;50.946;6.954;2023-04-06T11:21:38;14.80;1.00
5130;DHT22;2583;50.946;6.954;2023-04-06T11:24:07;14.90;1.00
5130;DHT22;2583;50.946;6.954;2023-04-06T11:26:39;15.00;1.00
5130;DHT22;2583;50.946;6.954;2023-04-06T11:29:06;14.90;1.00
5130;DHT22;2583;50.946;6.954;2023-04-06T11:31:40;15.00;1.00
5130;DHT22;2583;50.946;6.954;2023-04-06T11:34:23;15.00;1.00
5130;DHT22;2583;50.946;6.954;2023-04-06T11:37:10;15.10;1.00
5130;DHT22;2583;50.946;6.954;2023-04-06T11:39:49;15.20;1.00
5130;DHT22;2583;50.946;6.954;2023-04-06T11:42:28;15.10;1.00
5130;DHT22;2583;50.946;6.954;2023-04-06T11:44:57;15.20;1.00
5130;DHT22;2583;50.946;6.954;2023-04-06T11:49:56;15.20;1.00
5130;DHT22;2583;50.946;6.954;2023-04-06T11:52:27;15.10;1.00
5130;DHT22;2583;50.946;6.954;2023-04-06T11:54:54;15.10;1.00
5130;DHT22;2583;50.946;6.954;2023-04-06T11:57:23;15.30;1.00
5130;DHT22;2583;50.946;6.954;2023-04-06T11:59:52;15.30;1.00
5130;DHT22;2583;50.946;6.954;2023-04-06T12:02:19;15.30;1.00
5130;DHT22;2583;50.946;6.954;2023-04-06T12:04:46;15.30;1.00
5130;DHT22;2583;50.946;6.954;2023-04-06T12:07:13;15.30;1.00
5130;DHT22;2583;50.946;6.954;2023-04-06T12:09:42;15.20;1.00
5130;DHT22;2583;50.946;6.954;2023-04-06T12:12:09;15.30;1.00
5130;DHT22;2583;50.946;6.954;2023-04-06T12:14:36;15.40;1.00
5130;DHT22;2583;50.946;6.954;2023-04-06T12:17:02;15.30;1.00
5130;DHT22;2583;50.946;6.954;2023-04-06T12:19:29;15.20;1.00
5130;DHT22;2583;50.946;6.954;2023-04-06T12:21:58;15.30;1.00
5130;DHT22;2583;50.946;6.954;2023-04-06T12:24:24;15.50;1.00
5130;DHT22;2583;50.946;6.954;2023-04-06T12:26:52;15.60;1.00
5130;DHT22;2583;50.946;6.954;2023-04-06T12:29:32;15.60;1.00
5130;DHT22;2583;50.946;6.954;2023-04-06T12:32:00;15.60;1.00
5130;DHT22;2583;50.946;6.954;2023-04-06T12:34:28;15.50;1.00
5130;DHT22;2583;50.946;6.954;2023-04-06T12:36:54;15.40;1.00
5130;DHT22;2583;50.946;6.954;2023-04-06T12:39:23;15.40;1.00
5130;DHT22;2583;50.946;6.954;2023-04-06T12:41:50;15.40;1.00
5130;DHT22;2583;50.946;6.954;2023-04-06T12:44:17;15.20;1.00
5130;DHT22;2583;50.946;6.954;2023-04-06T12:46:43;15.10;1.00
5130;DHT22;2583;50.946;6.954;2023-04-06T12:49:10;15.20;1.00
5130;DHT22;2583;50.946;6.954;2023-04-06T12:51:37;15.40;1.00
5130;DHT22;2583;50.946;6.954;2023-04-06T12:54:04;15.40;1.00
5130;DHT22;2583;50.946;6.954;2023-04-06T12:56:32;15.40;1.00
5130;DHT22;2583;50.946;6.954;2023-04-06T12:58:59;15.40;1.00
5130;DHT22;2583;50.946;6.954;2023-04-06T13:01:27;15.20;1.00
5130;DHT22;2583;50.946;6.954;2023-04-06T13:03:56;15.40;1.00
5130;DHT22;2583;50.946;6.954;2023-04-06T13:06:23;15.50;1.00
5130;DHT22;2583;50.946;6.954;2023-04-06T13:08:54;15.30;1.00
5130;DHT22;2583;50.946;6.954;2023-04-06T13:11:21;15.20;1.00
5130;DHT22;2583;50.946;6.954;2023-04-06T13:13:53;15.10;1.00
5130;DHT22;2583;50.946;6.954;2023-04-06T13:16:20;15.00;1.00
5130;DHT22;2583;50.946;6.954;2023-04-06T13:18:47;14.90;1.00
5130;DHT22;2583;50.946;6.954;2023-04-06T13:21:15;14.80;1.00
5130;DHT22;2583;50.946;6.954;2023-04-06T13:23:43;14.70;1.00
5130;DHT22;2583;50.946;6.954;2023-04-06T13:26:10;14.80;1.00
5130;DHT22;2583;50.946;6.954;2023-04-06T13:28:37;14.70;1.00
5130;DHT22;2583;50.946;6.954;2023-04-06T13:31:06;14.70;1.00
5130;DHT22;2583;50.946;6.954;2023-04-06T13:33:33;14.70;1.00
5130;DHT22;2583;50.946;6.954;2023-04-06T13:36:00;14.60;1.00
5130;DHT22;2583;50.946;6.954;2023-04-06T13:38:27;14.60;1.00
5130;DHT22;2583;50.946;6.954;2023-04-06T13:40:54;14.40;1.00
5130;DHT22;2583;50.946;6.954;2023-04-06T13:43:21;14.30;1.00
5130;DHT22;2583;50.946;6.954;2023-04-06T13:45:53;14.10;1.00
5130;DHT22;2583;50.946;6.954;2023-04-06T13:48:21;14.10;1.00
5130;DHT22;2583;50.946;6.954;2023-04-06T13:50:49;13.90;1.00
5130;DHT22;2583;50.946;6.954;2023-04-06T13:53:16;13.70;1.00
5130;DHT22;2583;50.946;6.954;2023-04-06T13:55:42;13.50;1.00
5130;DHT22;2583;50.946;6.954;2023-04-06T13:58:09;13.50;1.00
5130;DHT22;2583;50.946;6.954;2023-04-06T14:00:36;13.30;1.00
5130;DHT22;2583;50.946;6.954;2023-04-06T14:03:03;13.10;1.00
5130;DHT22;2583;50.946;6.954;2023-04-06T14:05:32;12.90;1.00
5130;DHT22;2583;50.946;6.954;2023-04-06T14:07:58;12.80;1.00
5130;DHT22;2583;50.946;6.954;2023-04-06T14:10:25;12.70;1.00
5130;DHT22;2583;50.946;6.954;2023-04-06T14:12:54;12.70;1.00
5130;DHT22;2583;50.946;6.954;2023-04-06T14:15:21;12.70;1.00
5130;DHT22;2583;50.946;6.954;2023-04-06T14:17:49;12.80;1.00
5130;DHT22;2583;50.946;6.954;2023-04-06T14:20:16;12.90;1.00
5130;DHT22;2583;50.946;6.954;2023-04-06T14:22:43;12.90;1.00
5130;DHT22;2583;50.946;6.954;2023-04-06T14:25:10;13.00;1.00
5130;DHT22;2583;50.946;6.954;2023-04-06T14:27:40;13.10;1.00
5130;DHT22;2583;50.946;6.954;2023-04-06T14:30:07;13.10;1.00
5130;DHT22;2583;50.946;6.954;2023-04-06T14:32:34;13.10;1.00
5130;DHT22;2583;50.946;6.954;2023-04-06T14:35:04;12.90;1.00
5130;DHT22;2583;50.946;6.954;2023-04-06T14:37:33;12.80;1.00
5130;DHT22;2583;50.946;6.954;2023-04-06T14:40:00;12.70;1.00
5130;DHT22;2583;50.946;6.954;2023-04-06T14:42:27;12.70;1.00
5130;DHT22;2583;50.946;6.954;2023-04-06T14:44:54;12.70;1.00
5130;DHT22;2583;50.946;6.954;2023-04-06T14:47:21;12.60;1.00
5130;DHT22;2583;50.946;6.954;2023-04-06T14:49:51;12.70;1.00
5130;DHT22;2583;50.946;6.954;2023-04-06T14:52:18;12.70;1.00
5130;DHT22;2583;50.946;6.954;2023-04-06T14:54:45;12.50;1.00
5130;DHT22;2583;50.946;6.954;2023-04-06T14:57:12;12.50;1.00
5130;DHT22;2583;50.946;6.954;2023-04-06T14:59:38;12.40;1.00
5130;DHT22;2583;50.946;6.954;2023-04-06T15:02:06;12.30;1.00
5130;DHT22;2583;50.946;6.954;2023-04-06T15:04:34;12.20;1.00
5130;DHT22;2583;50.946;6.954;2023-04-06T15:07:02;12.10;1.00
5130;DHT22;2583;50.946;6.954;2023-04-06T15:09:29;12.00;1.00
5130;DHT22;2583;50.946;6.954;2023-04-06T15:11:56;12.00;1.00
5130;DHT22;2583;50.946;6.954;2023-04-06T15:14:23;12.00;1.00
5130;DHT22;2583;50.946;6.954;2023-04-06T15:16:50;11.80;1.00
5130;DHT22;2583;50.946;6.954;2023-04-06T15:19:17;11.70;1.00
5130;DHT22;2583;50.946;6.954;2023-04-06T15:21:44;11.70;1.00
5130;DHT22;2583;50.946;6.954;2023-04-06T15:24:10;11.70;1.00
5130;DHT22;2583;50.946;6.954;2023-04-06T15:26:37;11.60;1.00
5130;DHT22;2583;50.946;6.954;2023-04-06T15:29:04;11.70;1.00
5130;DHT22;2583;50.946;6.954;2023-04-06T15:31:31;11.70;1.00
5130;DHT22;2583;50.946;6.954;2023-04-06T15:34:07;11.70;1.00
5130;DHT22;2583;50.946;6.954;2023-04-06T15:36:36;11.50;1.00
5130;DHT22;2583;50.946;6.954;2023-04-06T15:39:03;11.40;1.00
5130;DHT22;2583;50.946;6.954;2023-04-06T15:41:35;11.30;1.00
5130;DHT22;2583;50.946;6.954;2023-04-06T15:44:02;11.20;1.00
5130;DHT22;2583;50.946;6.954;2023-04-06T15:46:29;11.10;1.00
5130;DHT22;2583;50.946;6.954;2023-04-06T15:48:56;11.10;1.00
5130;DHT22;2583;50.946;6.954;2023-04-06T15:51:23;11.10;1.00
5130;DHT22;2583;50.946;6.954;2023-04-06T15:53:50;11.10;1.00
5130;DHT22;2583;50.946;6.954;2023-04-06T15:56:16;11.00;1.00
5130;DHT22;2583;50.946;6.954;2023-04-06T15:58:43;11.10;1.00
5130;DHT22;2583;50.946;6.954;2023-04-06T16:01:15;11.00;1.00
5130;DHT22;2583;50.946;6.954;2023-04-06T16:03:42;11.00;1.00
5130;DHT22;2583;50.946;6.954;2023-04-06T16:06:10;11.00;57.20
5130;DHT22;2583;50.946;6.954;2023-04-06T16:08:38;11.00;99.80
5130;DHT22;2583;50.946;6.954;2023-04-06T16:11:05;10.90;85.80
5130;DHT22;2583;50.946;6.954;2023-04-06T16:13:32;10.90;99.90
5130;DHT22;2583;50.946;6.954;2023-04-06T16:15:59;10.90;99.90
5130;DHT22;2583;50.946;6.954;2023-04-06T16:18:26;10.80;85.30
5130;DHT22;2583;50.946;6.954;2023-04-06T16:20:53;10.80;56.80
5130;DHT22;2583;50.946;6.954;2023-04-06T16:23:20;10.70;42.20
5130;DHT22;2583;50.946;6.954;2023-04-06T16:25:47;10.70;99.90
5130;DHT22;2583;50.946;6.954;2023-04-06T16:28:16;10.60;99.90
5130;DHT22;2583;50.946;6.954;2023-04-06T16:30:43;10.60;99.90
5130;DHT22;2583;50.946;6.954;2023-04-06T16:33:12;10.50;99.90
5130;DHT22;2583;50.946;6.954;2023-04-06T16:35:46;10.50;99.90
5130;DHT22;2583;50.946;6.954;2023-04-06T16:38:14;10.40;99.90